Aviation Digital Data Service (ADDS)

Output produced by METARs form (1110 UTC 13 December 2017)
found at http://www.aviationweather.gov/adds/metars/
 
MPPA 131100Z VRB02KT 9999 FEW018 ///// Q1012
TAF MPPA 130910Z 1312/1418 34010KT 9999 FEW016 SCT100 
     BECMG 1316/1320 32014KT SCT018 
     BECMG 1320/1324 30010KT SCT016
       
MPDA 131100Z 00000KT CAVOK 22/22 Q1010
TAF MPDA 130910Z 1312/1400 28006KT 9999 SCT012 SCT080 
     BECMG 1316/1320 18010KT SCT014 
     BECMG 1320/1324 21008KT SCT016
       
MPMG 131100Z VRB02KT 9999 FEW015 24/23 Q1012 NOSIG
TAF MPMG 130910Z 1312/1400 30010KT 9999 SCT016 SCT080 
     BECMG 1316/1320 30014KT SCT018 
     BECMG 1320/1324 33010KT FEW018
       
MPTO 131100Z 00000KT 9999 SCT018 22/21 Q1011 NOSIG
TAF MPTO 130910Z 1312/1418 29010KT 9999 SCT016 SCT100 
     BECMG 1316/1320 30014KT SCT020 
     BECMG 1320/1324 32010KT SCT018